Time;durP1;ratioP1;P1;durP2;ratioP2;P2;SDS_P1;SDS_P2;PMS_P1;PMS_P2;Temp;Humidity;BMP_temperature;BMP_pressure;BME280_temperature;BME280_humidity;BME280_pressure;Samples;Min_cycle;Max_cycle;Signal;HPM_P1;HPM_P2
2021/01/05 00:01:31;;;;;;;13.30;11.73;;;7.20;86.30;;;;;;5070072;28;20662;-49
2021/01/05 00:03:58;;;;;;;15.43;12.17;;;7.20;86.30;;;;;;5074189;28;20787;-50
2021/01/05 00:06:25;;;;;;;15.93;12.07;;;7.20;86.20;;;;;;5089922;28;20703;-49
2021/01/05 00:08:51;;;;;;;13.60;11.17;;;7.30;86.30;;;;;;5089887;28;20634;-50
2021/01/05 00:11:18;;;;;;;11.70;10.47;;;7.20;86.10;;;;;;5090095;28;20693;-50
2021/01/05 00:13:45;;;;;;;14.17;11.53;;;7.30;86.30;;;;;;5089663;28;20689;-50
2021/01/05 00:16:17;;;;;;;19.83;13.20;;;7.30;86.40;;;;;;5088487;28;21084;-48
2021/01/05 00:18:45;;;;;;;13.47;11.67;;;7.20;86.40;;;;;;5091364;28;21033;-50
2021/01/05 00:21:12;;;;;;;17.00;12.97;;;7.20;86.20;;;;;;5090238;28;20710;-50
2021/01/05 00:23:39;;;;;;;14.23;12.63;;;7.20;86.30;;;;;;5089376;28;21009;-50
2021/01/05 00:26:05;;;;;;;18.63;14.00;;;7.20;86.40;;;;;;5091057;28;20719;-50
2021/01/05 00:28:32;;;;;;;12.13;10.57;;;7.30;86.50;;;;;;5089343;28;20675;-50
2021/01/05 00:30:59;;;;;;;15.00;11.57;;;7.20;86.40;;;;;;5089800;28;20743;-49
2021/01/05 00:33:26;;;;;;;14.83;12.13;;;7.20;86.30;;;;;;5079481;28;20637;-48
2021/01/05 00:35:53;;;;;;;14.33;12.17;;;7.30;86.40;;;;;;5069295;28;20670;-50
2021/01/05 00:38:20;;;;;;;15.07;11.27;;;7.20;86.40;;;;;;5072900;28;20626;-49
2021/01/05 00:40:47;;;;;;;15.40;12.77;;;7.20;86.40;;;;;;5088121;28;20673;-49
2021/01/05 00:43:14;;;;;;;15.27;12.80;;;7.20;86.50;;;;;;5089418;28;20634;-49
2021/01/05 00:45:41;;;;;;;16.27;12.43;;;7.20;86.50;;;;;;5085625;28;20779;-49
2021/01/05 00:48:08;;;;;;;16.23;12.00;;;7.20;86.40;;;;;;5093640;28;20630;-50
2021/01/05 00:50:34;;;;;;;14.70;11.03;;;7.30;86.40;;;;;;5086922;28;20677;-48
2021/01/05 00:53:02;;;;;;;15.50;11.80;;;7.20;86.40;;;;;;5073226;28;20952;-50
2021/01/05 00:55:29;;;;;;;14.37;11.27;;;7.20;86.30;;;;;;5073408;28;20712;-49
2021/01/05 00:57:55;;;;;;;16.83;11.60;;;7.20;86.30;;;;;;5073046;28;20657;-49
2021/01/05 01:00:24;;;;;;;13.20;10.13;;;7.20;86.30;;;;;;5065275;28;20638;-49
2021/01/05 01:02:51;;;;;;;12.90;9.73;;;7.20;86.60;;;;;;5093458;28;20690;-49
2021/01/05 01:05:18;;;;;;;16.00;11.20;;;7.20;86.40;;;;;;5093174;28;20635;-48
2021/01/05 01:07:45;;;;;;;16.50;12.23;;;7.20;86.50;;;;;;5093630;28;20691;-49
2021/01/05 01:10:13;;;;;;;13.33;12.03;;;7.20;86.70;;;;;;5093769;28;21021;-49
2021/01/05 01:12:39;;;;;;;17.67;11.70;;;7.20;86.70;;;;;;5083103;28;20647;-49
2021/01/05 01:15:07;;;;;;;14.50;11.27;;;7.20;86.70;;;;;;5095067;28;20625;-49
2021/01/05 01:17:34;;;;;;;15.40;12.87;;;7.20;86.60;;;;;;5095175;28;20708;-50
2021/01/05 01:20:01;;;;;;;12.47;10.90;;;7.20;86.70;;;;;;5094568;28;20634;-51
2021/01/05 01:22:27;;;;;;;14.23;11.47;;;7.20;86.70;;;;;;5093572;28;21036;-49
2021/01/05 01:24:54;;;;;;;15.73;12.33;;;7.20;86.70;;;;;;5093354;28;21066;-49
2021/01/05 01:27:22;;;;;;;16.07;12.60;;;7.20;86.90;;;;;;5093150;28;20717;-49
2021/01/05 01:29:48;;;;;;;14.27;11.93;;;7.20;86.90;;;;;;5094125;28;20709;-52
2021/01/05 01:32:15;;;;;;;12.47;11.17;;;7.20;86.70;;;;;;5092878;28;20696;-48
2021/01/05 01:34:42;;;;;;;13.70;11.47;;;7.20;87.20;;;;;;5074911;28;20686;-49
2021/01/05 01:37:10;;;;;;;15.60;11.70;;;7.20;86.60;;;;;;5092689;28;20654;-48
2021/01/05 01:39:36;;;;;;;14.00;10.40;;;7.20;86.60;;;;;;5093455;28;20629;-49
2021/01/05 01:42:04;;;;;;;14.00;11.30;;;7.20;86.50;;;;;;5093434;28;20692;-49
2021/01/05 01:44:33;;;;;;;12.90;10.97;;;7.20;86.50;;;;;;5092584;28;20975;-48
2021/01/05 01:47:02;;;;;;;12.87;11.40;;;7.20;86.60;;;;;;5092624;28;20937;-48
2021/01/05 01:49:29;;;;;;;15.70;11.13;;;7.20;87.10;;;;;;5091316;28;20621;-48
2021/01/05 01:51:55;;;;;;;12.90;10.17;;;7.20;86.60;;;;;;5092875;28;20631;-48
2021/01/05 01:54:54;;;;;;;15.70;12.13;;;7.20;86.50;;;;;;5092859;28;20618;-49
2021/01/05 01:57:52;;;;;;;14.90;10.83;;;7.10;86.00;;;;;;5092633;28;21000;-50
2021/01/05 02:00:27;;;;;;;12.00;10.47;;;7.10;86.10;;;;;;5092844;28;20656;-50
2021/01/05 02:03:16;;;;;;;13.03;10.27;;;7.20;86.70;;;;;;5092643;28;20619;-48
2021/01/05 02:05:49;;;;;;;10.57;9.07;;;7.20;86.60;;;;;;5077850;28;20659;-49
2021/01/05 02:08:27;;;;;;;14.03;10.50;;;7.20;86.70;;;;;;5083933;28;20765;-49
2021/01/05 02:10:55;;;;;;;15.20;10.90;;;7.20;86.60;;;;;;5072280;28;20614;-49
2021/01/05 02:13:39;;;;;;;17.50;13.60;;;7.20;86.40;;;;;;5076779;28;20746;-49
2021/01/05 02:16:23;;;;;;;13.80;9.20;;;7.10;85.90;;;;;;5092477;28;20657;-50
2021/01/05 02:18:51;;;;;;;14.30;11.20;;;7.20;86.80;;;;;;5083179;28;20613;-50
2021/01/05 02:21:23;;;;;;;12.30;10.97;;;7.20;86.20;;;;;;5072469;28;20742;-50
2021/01/05 02:24:03;;;;;;;13.50;10.80;;;7.10;86.20;;;;;;5082768;28;20675;-50
2021/01/05 02:26:31;;;;;;;16.73;10.33;;;7.20;86.50;;;;;;5091937;28;20666;-49
2021/01/05 02:29:00;;;;;;;15.20;10.73;;;7.20;86.10;;;;;;5091313;28;20629;-50
2021/01/05 02:31:46;;;;;;;12.33;9.67;;;7.20;86.00;;;;;;5091919;28;20691;-50
2021/01/05 02:34:21;;;;;;;16.07;10.07;;;7.20;85.70;;;;;;5091795;28;20679;-49
2021/01/05 02:37:02;;;;;;;13.80;11.87;;;7.10;86.30;;;;;;5091119;28;20665;-49
2021/01/05 02:40:03;;;;;;;15.93;12.23;;;7.10;86.50;;;;;;5074161;28;21340;-49
2021/01/05 02:42:53;;;;;;;13.73;11.83;;;7.20;86.30;;;;;;5009059;28;20658;-50
2021/01/05 02:45:21;;;;;;;16.60;12.07;;;7.20;86.30;;;;;;5086914;28;20983;-50
2021/01/05 02:48:11;;;;;;;15.80;10.33;;;7.20;86.00;;;;;;5091153;28;20617;-50
2021/01/05 02:51:20;;;;;;;12.17;10.90;;;7.20;85.30;;;;;;5072885;28;20630;-50
2021/01/05 02:54:15;;;;;;;13.20;10.50;;;7.20;85.40;;;;;;5091276;28;20676;-49
2021/01/05 02:57:19;;;;;;;16.03;11.03;;;7.10;85.40;;;;;;5057089;28;20681;-50
2021/01/05 03:00:27;;;;;;;14.47;9.43;;;7.20;85.50;;;;;;5090385;28;20638;-50
2021/01/05 03:03:25;;;;;;;11.13;8.77;;;7.20;85.30;;;;;;5091158;28;21162;-49
2021/01/05 03:06:24;;;;;;;13.20;10.40;;;7.20;85.40;;;;;;5082911;28;20807;-50
2021/01/05 03:09:06;;;;;;;13.77;10.27;;;7.10;85.50;;;;;;5090800;28;20774;-50
2021/01/05 03:11:36;;;;;;;13.23;11.77;;;7.20;85.70;;;;;;5090239;28;20626;-49
2021/01/05 03:14:04;;;;;;;11.63;9.70;;;7.20;86.00;;;;;;5090668;28;21008;-48
2021/01/05 03:16:33;;;;;;;13.17;10.40;;;7.20;86.20;;;;;;5090410;28;20643;-49
2021/01/05 03:19:05;;;;;;;14.07;10.27;;;7.20;86.30;;;;;;5072184;28;20698;-49
2021/01/05 03:21:33;;;;;;;15.27;11.13;;;7.10;86.30;;;;;;5070223;28;20646;-49
2021/01/05 03:24:00;;;;;;;13.60;11.10;;;7.10;86.10;;;;;;5069558;28;20660;-49
2021/01/05 03:26:31;;;;;;;11.17;9.90;;;7.10;86.00;;;;;;5069668;28;20978;-50
2021/01/05 03:28:58;;;;;;;13.00;9.67;;;7.10;86.20;;;;;;5070245;28;20965;-49
2021/01/05 03:31:26;;;;;;;13.37;10.87;;;7.10;86.20;;;;;;5069908;28;20734;-51
2021/01/05 03:33:58;;;;;;;12.33;10.00;;;7.10;86.30;;;;;;5086995;28;20664;-52
2021/01/05 03:36:25;;;;;;;11.30;10.03;;;7.10;86.50;;;;;;5089445;28;21034;-51
2021/01/05 03:38:51;;;;;;;11.50;10.30;;;7.10;86.60;;;;;;5089934;28;20617;-52
2021/01/05 03:41:18;;;;;;;10.87;9.43;;;7.10;86.30;;;;;;5090806;28;20652;-51
2021/01/05 03:43:45;;;;;;;12.93;11.33;;;7.10;86.80;;;;;;5088941;28;21193;-49
2021/01/05 03:46:12;;;;;;;14.67;11.07;;;7.10;86.20;;;;;;5089075;28;21246;-52
2021/01/05 03:48:39;;;;;;;11.60;9.60;;;7.00;86.20;;;;;;5090502;28;20679;-51
2021/01/05 03:51:06;;;;;;;11.30;10.20;;;7.10;86.30;;;;;;5089786;28;20624;-49
2021/01/05 03:53:33;;;;;;;16.37;11.13;;;7.10;86.10;;;;;;5089385;28;20630;-49
2021/01/05 03:56:00;;;;;;;9.63;8.47;;;7.10;86.20;;;;;;5089860;28;20657;-50
2021/01/05 03:58:27;;;;;;;12.77;9.60;;;7.10;86.40;;;;;;5071377;28;20962;-51
2021/01/05 04:00:54;;;;;;;14.20;11.67;;;7.00;87.10;;;;;;5080141;28;20681;-49
2021/01/05 04:03:21;;;;;;;13.77;10.10;;;7.00;86.50;;;;;;5069236;28;21202;-51
2021/01/05 04:05:48;;;;;;;12.90;10.20;;;7.00;86.70;;;;;;5083432;28;21197;-51
2021/01/05 04:08:16;;;;;;;18.57;10.73;;;7.00;86.70;;;;;;5089703;28;20634;-52
2021/01/05 04:10:43;;;;;;;12.13;10.30;;;7.00;86.50;;;;;;5090005;28;21270;-50
2021/01/05 04:13:10;;;;;;;10.87;8.10;;;7.00;86.60;;;;;;5088597;28;20687;-51
2021/01/05 04:15:37;;;;;;;11.37;9.23;;;7.10;86.80;;;;;;5089687;28;20707;-51
2021/01/05 04:18:04;;;;;;;13.00;11.17;;;7.00;86.50;;;;;;5090222;28;20668;-51
2021/01/05 04:20:30;;;;;;;12.93;10.00;;;7.10;86.50;;;;;;5089156;28;20635;-50
2021/01/05 04:22:57;;;;;;;10.30;8.60;;;7.10;86.90;;;;;;5089810;28;20649;-51
2021/01/05 04:25:25;;;;;;;10.80;8.70;;;7.10;86.30;;;;;;5089179;28;20656;-51
2021/01/05 04:27:52;;;;;;;11.13;9.10;;;7.10;86.30;;;;;;5089104;28;21090;-52
2021/01/05 04:30:20;;;;;;;13.47;9.07;;;7.10;86.60;;;;;;5088790;28;21117;-50
2021/01/05 04:32:47;;;;;;;10.97;9.40;;;7.10;86.50;;;;;;5089520;28;20621;-50
2021/01/05 04:35:14;;;;;;;10.07;8.00;;;7.10;86.30;;;;;;5088890;28;21209;-51
2021/01/05 04:37:41;;;;;;;12.60;9.70;;;7.10;86.20;;;;;;5090105;28;20671;-50
2021/01/05 04:40:10;;;;;;;11.50;10.03;;;7.00;86.10;;;;;;5089811;28;20626;-50
2021/01/05 04:42:39;;;;;;;10.63;9.27;;;7.00;86.20;;;;;;5089441;28;20658;-50
2021/01/05 04:45:08;;;;;;;11.53;9.03;;;7.10;86.80;;;;;;5089119;28;20620;-51
2021/01/05 04:47:38;;;;;;;10.30;9.07;;;7.10;86.40;;;;;;5089646;28;20714;-51
2021/01/05 04:50:08;;;;;;;12.17;9.60;;;7.10;86.60;;;;;;5071285;28;20629;-51
2021/01/05 04:52:54;;;;;;;11.57;9.17;;;7.10;86.40;;;;;;5089294;28;20622;-52
2021/01/05 04:55:28;;;;;;;12.53;9.23;;;7.10;86.60;;;;;;5070597;28;21189;-50
2021/01/05 04:58:03;;;;;;;11.07;9.10;;;7.10;86.50;;;;;;5087667;28;20676;-51
2021/01/05 05:00:30;;;;;;;10.77;9.07;;;7.10;86.70;;;;;;5085093;28;20742;-51
2021/01/05 05:03:03;;;;;;;11.63;8.03;;;7.10;86.40;;;;;;5089260;28;20660;-50
2021/01/05 05:05:57;;;;;;;13.63;8.47;;;7.00;86.50;;;;;;5088880;28;20670;-52
2021/01/05 05:08:44;;;;;;;11.17;9.97;;;7.10;86.10;;;;;;5089352;28;20669;-51
2021/01/05 05:11:13;;;;;;;10.30;8.73;;;7.10;86.40;;;;;;5082624;28;20633;-50
2021/01/05 05:13:47;;;;;;;11.60;8.33;;;7.10;86.40;;;;;;5087539;28;20634;-51
2021/01/05 05:16:25;;;;;;;15.90;9.50;;;7.00;86.50;;;;;;5089327;28;20744;-51
2021/01/05 05:19:01;;;;;;;9.80;8.63;;;7.00;86.50;;;;;;5088443;28;20678;-50
2021/01/05 05:21:33;;;;;;;11.13;8.90;;;7.00;86.30;;;;;;5085126;28;20652;-51
2021/01/05 05:24:06;;;;;;;12.40;9.13;;;7.00;85.80;;;;;;5078514;28;20693;-51
2021/01/05 05:26:38;;;;;;;12.40;9.17;;;7.00;86.70;;;;;;5092631;28;20734;-51
2021/01/05 05:29:10;;;;;;;11.20;9.13;;;7.00;86.80;;;;;;5072371;28;21185;-50
2021/01/05 05:31:36;;;;;;;11.40;8.90;;;7.00;86.60;;;;;;5093035;28;20621;-51
2021/01/05 05:34:07;;;;;;;10.60;8.53;;;7.00;86.50;;;;;;5092568;28;20621;-51
2021/01/05 05:37:01;;;;;;;11.03;9.83;;;7.00;86.80;;;;;;5073675;28;21228;-51
2021/01/05 05:39:58;;;;;;;10.10;8.53;;;7.00;86.30;;;;;;5072671;28;20779;-50
2021/01/05 05:42:41;;;;;;;9.70;8.30;;;7.00;86.10;;;;;;5072153;28;20701;-51
2021/01/05 05:45:11;;;;;;;9.77;8.30;;;7.00;86.10;;;;;;5079388;28;20637;-50
2021/01/05 05:47:40;;;;;;;11.17;8.00;;;7.00;86.70;;;;;;5091747;28;20733;-50
2021/01/05 05:50:09;;;;;;;12.13;9.03;;;7.00;86.80;;;;;;5072860;28;20702;-50
2021/01/05 05:52:37;;;;;;;12.50;8.40;;;7.00;86.80;;;;;;5072152;28;20620;-51
2021/01/05 05:55:06;;;;;;;9.63;8.67;;;7.00;87.10;;;;;;5073003;28;20657;-51
2021/01/05 05:57:39;;;;;;;12.30;8.20;;;7.00;87.00;;;;;;5073625;28;20702;-51
2021/01/05 06:00:14;;;;;;;13.87;8.30;;;6.90;87.20;;;;;;5073020;28;20718;-51
2021/01/05 06:02:41;;;;;;;11.93;8.90;;;7.00;87.30;;;;;;5071729;28;20707;-50
2021/01/05 06:05:19;;;;;;;12.10;8.97;;;6.90;87.20;;;;;;5063516;28;20751;-50
2021/01/05 06:07:45;;;;;;;8.67;7.87;;;6.90;87.40;;;;;;5091904;28;20675;-51
2021/01/05 06:10:12;;;;;;;8.70;7.73;;;6.90;87.40;;;;;;5092128;28;20695;-51
2021/01/05 06:12:39;;;;;;;13.50;8.87;;;7.00;87.40;;;;;;5092314;28;20724;-50
2021/01/05 06:15:07;;;;;;;9.80;8.00;;;7.00;87.60;;;;;;5091339;28;20638;-50
2021/01/05 06:17:35;;;;;;;13.43;9.10;;;6.90;87.30;;;;;;5091847;28;20636;-51
2021/01/05 06:20:01;;;;;;;12.47;8.47;;;6.90;87.60;;;;;;5091364;28;20626;-51
2021/01/05 06:22:28;;;;;;;13.83;8.90;;;6.90;87.80;;;;;;5072931;28;21225;-51
2021/01/05 06:24:55;;;;;;;12.77;10.97;;;6.90;88.00;;;;;;5091489;28;20681;-49
2021/01/05 06:27:22;;;;;;;12.50;9.97;;;6.90;88.20;;;;;;5091167;28;20792;-50
2021/01/05 06:29:48;;;;;;;14.60;9.87;;;6.90;88.20;;;;;;5091803;28;20674;-50
2021/01/05 06:32:15;;;;;;;12.97;9.60;;;6.90;88.30;;;;;;5091735;28;20621;-50
2021/01/05 06:34:43;;;;;;;12.50;9.90;;;6.90;88.30;;;;;;5091346;28;20668;-51
2021/01/05 06:37:09;;;;;;;12.63;9.57;;;6.90;88.70;;;;;;5091609;28;20715;-50
2021/01/05 06:39:36;;;;;;;10.40;8.27;;;6.80;88.80;;;;;;5091557;28;20630;-50
2021/01/05 06:42:03;;;;;;;10.93;9.03;;;6.90;89.00;;;;;;5091333;28;20658;-50
2021/01/05 06:44:30;;;;;;;11.13;8.50;;;6.90;88.80;;;;;;5090429;28;20634;-50
2021/01/05 06:46:57;;;;;;;9.57;8.57;;;6.90;89.00;;;;;;5091949;28;20741;-50
2021/01/05 06:49:26;;;;;;;14.60;10.33;;;6.90;89.00;;;;;;5090811;28;20629;-50
2021/01/05 06:51:54;;;;;;;10.20;9.17;;;6.90;89.00;;;;;;5091493;28;20676;-51
2021/01/05 06:54:21;;;;;;;11.67;9.40;;;6.90;89.10;;;;;;5089991;28;20672;-50
2021/01/05 06:56:49;;;;;;;12.23;10.40;;;6.90;89.20;;;;;;5090932;28;20657;-51
2021/01/05 06:59:15;;;;;;;12.10;10.30;;;6.90;89.10;;;;;;5091581;28;20774;-51
2021/01/05 07:01:42;;;;;;;10.87;8.57;;;6.90;89.40;;;;;;5091404;28;20755;-50
2021/01/05 07:04:09;;;;;;;13.77;9.33;;;6.90;89.40;;;;;;5089278;28;20627;-51
2021/01/05 07:06:35;;;;;;;12.13;9.30;;;6.90;89.30;;;;;;5090644;28;20650;-51
2021/01/05 07:09:04;;;;;;;12.00;10.17;;;6.90;89.40;;;;;;5090062;28;21151;-50
2021/01/05 07:11:30;;;;;;;12.53;11.33;;;6.90;89.30;;;;;;5090596;28;20621;-50
2021/01/05 07:13:57;;;;;;;12.93;9.43;;;6.90;89.50;;;;;;5090594;28;20621;-51
2021/01/05 07:16:24;;;;;;;13.70;10.10;;;6.90;89.50;;;;;;5089992;28;20727;-51
2021/01/05 07:18:50;;;;;;;12.93;10.90;;;6.90;89.60;;;;;;5091130;28;21145;-51
2021/01/05 07:21:17;;;;;;;14.60;11.47;;;6.90;89.70;;;;;;5071416;28;20682;-52
2021/01/05 07:23:44;;;;;;;15.93;13.27;;;7.00;90.00;;;;;;5090794;28;20666;-50
2021/01/05 07:26:12;;;;;;;14.90;12.40;;;7.00;89.90;;;;;;5090537;28;21078;-50
2021/01/05 07:28:39;;;;;;;18.87;12.23;;;7.00;89.70;;;;;;5090241;28;20936;-49
2021/01/05 07:31:06;;;;;;;14.23;11.90;;;7.00;89.80;;;;;;5090184;28;20625;-51
2021/01/05 07:33:32;;;;;;;13.13;10.87;;;7.00;89.80;;;;;;5090489;28;20668;-51
2021/01/05 07:35:59;;;;;;;11.93;10.27;;;7.00;90.20;;;;;;5090172;28;20729;-50
2021/01/05 07:38:26;;;;;;;15.97;11.30;;;7.00;90.00;;;;;;5090501;28;20638;-50
2021/01/05 07:40:53;;;;;;;13.50;11.07;;;6.90;89.90;;;;;;5090469;28;20622;-49
2021/01/05 07:43:20;;;;;;;17.80;11.10;;;7.00;90.00;;;;;;5090034;28;20667;-50
2021/01/05 07:45:47;;;;;;;15.40;10.50;;;7.00;90.00;;;;;;5089896;28;20821;-51
2021/01/05 07:48:14;;;;;;;16.37;12.57;;;7.00;90.00;;;;;;5088822;28;20633;-52
2021/01/05 07:50:40;;;;;;;12.00;10.30;;;7.00;90.00;;;;;;5089788;28;20626;-51
2021/01/05 07:53:08;;;;;;;14.00;11.73;;;6.90;90.00;;;;;;5089051;28;20738;-50
2021/01/05 07:55:35;;;;;;;14.73;11.20;;;7.00;90.10;;;;;;5089812;28;20701;-51
2021/01/05 07:58:01;;;;;;;13.77;10.70;;;7.00;90.20;;;;;;5089621;28;20625;-51
2021/01/05 08:00:29;;;;;;;16.20;11.70;;;7.00;90.30;;;;;;5090049;28;20620;-51
2021/01/05 08:02:57;;;;;;;21.60;12.77;;;7.00;90.30;;;;;;5089750;28;20752;-51
2021/01/05 08:05:25;;;;;;;16.93;15.03;;;7.00;90.30;;;;;;5088583;28;20705;-51
2021/01/05 08:07:51;;;;;;;12.90;11.13;;;7.00;90.30;;;;;;5088904;28;20623;-49
2021/01/05 08:10:19;;;;;;;15.00;11.90;;;7.00;90.40;;;;;;5089928;28;20649;-51
2021/01/05 08:12:46;;;;;;;15.87;12.87;;;7.00;90.40;;;;;;5089911;28;20622;-50
2021/01/05 08:15:14;;;;;;;13.30;11.67;;;7.00;90.40;;;;;;5089814;28;21038;-51
2021/01/05 08:17:42;;;;;;;16.53;12.07;;;7.00;90.50;;;;;;5089137;28;20625;-50
2021/01/05 08:20:09;;;;;;;15.80;11.67;;;6.90;90.60;;;;;;5089694;28;20660;-51
2021/01/05 08:22:36;;;;;;;11.60;9.87;;;6.90;90.70;;;;;;5088735;28;20703;-51
2021/01/05 08:25:03;;;;;;;17.13;12.60;;;6.90;90.80;;;;;;5089370;28;20679;-51
2021/01/05 08:27:30;;;;;;;13.00;11.43;;;7.00;90.80;;;;;;5088480;28;21227;-51
2021/01/05 08:29:56;;;;;;;14.20;11.10;;;7.00;90.80;;;;;;5089890;28;20680;-50
2021/01/05 08:32:23;;;;;;;16.30;12.50;;;7.00;90.80;;;;;;5089295;28;20745;-50
2021/01/05 08:34:51;;;;;;;16.80;13.73;;;7.00;90.80;;;;;;5089304;28;20709;-51
2021/01/05 08:37:18;;;;;;;18.50;13.17;;;7.00;90.70;;;;;;5089456;28;20649;-51
2021/01/05 08:39:45;;;;;;;20.40;13.17;;;7.00;90.60;;;;;;5089289;28;20627;-51
2021/01/05 08:42:11;;;;;;;18.03;12.70;;;7.00;90.70;;;;;;5089423;28;20690;-51
2021/01/05 08:44:38;;;;;;;16.50;12.43;;;7.00;90.80;;;;;;5088498;28;21032;-50
2021/01/05 08:47:05;;;;;;;14.07;12.20;;;7.00;90.80;;;;;;5089624;28;20654;-50
2021/01/05 08:49:32;;;;;;;18.17;12.70;;;6.90;90.80;;;;;;5088342;28;20688;-51
2021/01/05 08:52:00;;;;;;;15.93;13.40;;;7.00;90.90;;;;;;5089575;28;21000;-50
2021/01/05 08:54:26;;;;;;;17.60;12.40;;;6.90;90.80;;;;;;5089762;28;20683;-51
2021/01/05 08:56:54;;;;;;;20.43;14.63;;;7.00;90.90;;;;;;5089354;28;20718;-50
2021/01/05 08:59:21;;;;;;;20.50;13.13;;;7.00;90.90;;;;;;5093979;28;20666;-49
2021/01/05 09:01:48;;;;;;;19.73;13.90;;;7.00;90.90;;;;;;5096032;28;21186;-50
2021/01/05 09:04:14;;;;;;;17.60;13.30;;;7.00;91.00;;;;;;5094728;28;20710;-51
2021/01/05 09:06:41;;;;;;;16.90;14.23;;;7.00;91.00;;;;;;5094604;28;20649;-49
2021/01/05 09:09:09;;;;;;;16.37;13.50;;;7.00;90.90;;;;;;5091921;28;20685;-51
2021/01/05 09:11:36;;;;;;;14.13;12.70;;;7.00;90.90;;;;;;5093214;28;20679;-50
2021/01/05 09:14:02;;;;;;;21.00;15.20;;;7.00;90.80;;;;;;5093220;28;20621;-50
2021/01/05 09:16:30;;;;;;;20.07;14.33;;;7.00;90.90;;;;;;5093341;28;20699;-49
2021/01/05 09:18:57;;;;;;;16.20;11.43;;;7.00;91.00;;;;;;5093449;28;21178;-51
2021/01/05 09:21:25;;;;;;;14.30;11.97;;;7.00;91.10;;;;;;5092908;28;20785;-51
2021/01/05 09:23:52;;;;;;;17.80;14.10;;;7.00;91.10;;;;;;5092919;28;20713;-50
2021/01/05 09:26:21;;;;;;;17.97;12.70;;;7.00;91.10;;;;;;5092597;28;20667;-49
2021/01/05 09:28:48;;;;;;;15.53;12.30;;;7.00;91.10;;;;;;5093050;28;21212;-50
2021/01/05 09:31:15;;;;;;;18.33;12.83;;;7.00;91.30;;;;;;5092853;28;20631;-48
2021/01/05 09:33:41;;;;;;;16.87;11.80;;;7.00;91.60;;;;;;5093469;28;20617;-50
2021/01/05 09:36:09;;;;;;;17.10;13.67;;;7.10;91.40;;;;;;5094124;28;20652;-49
2021/01/05 09:38:37;;;;;;;14.50;12.60;;;7.10;91.40;;;;;;5091979;28;20694;-49
2021/01/05 09:41:04;;;;;;;16.00;13.33;;;7.10;91.40;;;;;;5092549;28;21002;-49
2021/01/05 09:43:31;;;;;;;19.33;14.50;;;7.10;91.30;;;;;;5093075;28;20657;-49
2021/01/05 09:45:58;;;;;;;14.60;12.77;;;7.10;91.30;;;;;;5093022;28;20774;-48
2021/01/05 09:48:25;;;;;;;20.93;13.90;;;7.20;91.30;;;;;;5092712;28;20694;-49
2021/01/05 09:50:52;;;;;;;16.70;13.30;;;7.20;91.10;;;;;;5092701;28;20993;-49
2021/01/05 09:53:19;;;;;;;14.10;10.47;;;7.20;91.10;;;;;;5092524;28;20613;-50
2021/01/05 09:55:45;;;;;;;19.33;14.00;;;7.10;91.10;;;;;;5093432;28;20642;-49
2021/01/05 09:58:12;;;;;;;16.87;14.90;;;7.10;91.20;;;;;;5092967;28;20632;-49
2021/01/05 10:00:40;;;;;;;16.27;12.47;;;7.10;91.20;;;;;;5092170;28;20627;-49
2021/01/05 10:03:07;;;;;;;14.80;11.60;;;7.20;91.30;;;;;;5091051;28;20653;-50
2021/01/05 10:05:33;;;;;;;14.60;11.43;;;7.20;91.10;;;;;;5091862;28;20720;-50
2021/01/05 10:08:00;;;;;;;16.20;14.47;;;7.20;91.20;;;;;;5091910;28;20689;-50
2021/01/05 10:10:27;;;;;;;14.53;12.60;;;7.30;91.50;;;;;;5091595;28;20637;-49
2021/01/05 10:12:54;;;;;;;19.37;14.27;;;7.30;91.00;;;;;;5091730;28;20695;-49
2021/01/05 10:15:23;;;;;;;15.20;11.70;;;7.30;90.90;;;;;;5091487;28;20641;-50
2021/01/05 10:17:51;;;;;;;20.80;14.50;;;7.30;90.80;;;;;;5091977;28;20681;-50
2021/01/05 10:20:19;;;;;;;15.60;12.40;;;7.40;90.90;;;;;;5091959;28;21259;-49
2021/01/05 10:22:46;;;;;;;18.63;14.33;;;7.40;90.70;;;;;;5092292;28;20654;-50
2021/01/05 10:25:13;;;;;;;14.20;12.27;;;7.40;90.60;;;;;;5091720;28;20631;-49
2021/01/05 10:27:40;;;;;;;15.70;11.03;;;7.40;90.60;;;;;;5091699;28;20875;-49
2021/01/05 10:30:09;;;;;;;10.87;9.77;;;7.40;90.60;;;;;;5091903;28;20633;-50
2021/01/05 10:32:35;;;;;;;13.10;11.50;;;7.40;90.70;;;;;;5092106;28;20648;-49
2021/01/05 10:35:04;;;;;;;15.27;13.50;;;7.40;90.50;;;;;;5090595;28;21019;-49
2021/01/05 10:37:31;;;;;;;17.83;13.90;;;7.40;90.50;;;;;;5091907;28;20629;-50
2021/01/05 10:39:57;;;;;;;16.33;13.63;;;7.30;90.50;;;;;;5092022;28;20631;-50
2021/01/05 10:42:24;;;;;;;17.00;12.07;;;7.40;90.50;;;;;;5091617;28;20643;-49
2021/01/05 10:44:51;;;;;;;13.40;11.47;;;7.40;90.50;;;;;;5091231;28;20629;-49
2021/01/05 10:47:18;;;;;;;19.60;13.30;;;7.40;90.50;;;;;;5091508;28;20647;-50
2021/01/05 10:49:44;;;;;;;14.07;11.27;;;7.40;90.50;;;;;;5091561;28;20638;-50
2021/01/05 10:52:15;;;;;;;15.70;12.77;;;7.40;90.50;;;;;;5091536;28;20627;-49
2021/01/05 10:54:42;;;;;;;16.90;12.03;;;7.40;90.40;;;;;;5091440;28;20626;-49
2021/01/05 10:57:10;;;;;;;13.20;11.73;;;7.40;90.50;;;;;;5091173;28;21279;-49
2021/01/05 10:59:40;;;;;;;14.17;11.30;;;7.40;90.50;;;;;;5091129;28;20631;-49
2021/01/05 11:02:08;;;;;;;14.63;12.00;;;7.40;90.40;;;;;;5090823;28;20630;-49
2021/01/05 11:04:36;;;;;;;15.17;12.17;;;7.50;90.50;;;;;;5090824;28;20692;-50
2021/01/05 11:07:03;;;;;;;18.07;12.63;;;7.50;90.40;;;;;;5090591;28;21016;-50
2021/01/05 11:09:31;;;;;;;17.20;12.23;;;7.50;90.20;;;;;;5089675;28;20635;-50
2021/01/05 11:11:58;;;;;;;14.73;12.17;;;7.50;90.30;;;;;;5090565;28;20684;-48
2021/01/05 11:14:25;;;;;;;14.70;11.07;;;7.50;90.20;;;;;;5091097;28;20622;-49
2021/01/05 11:16:51;;;;;;;13.50;10.90;;;7.50;90.30;;;;;;5090608;28;20972;-48
2021/01/05 11:19:18;;;;;;;14.83;11.70;;;7.60;90.30;;;;;;5089628;28;20638;-49
2021/01/05 11:21:52;;;;;;;15.20;12.13;;;7.60;90.40;;;;;;5089523;28;20614;-51
2021/01/05 11:24:19;;;;;;;14.33;12.20;;;7.60;90.30;;;;;;5089636;28;20687;-49
2021/01/05 11:26:48;;;;;;;17.07;12.10;;;7.60;90.30;;;;;;5104335;22;20816;-54
2021/01/05 11:29:21;;;;;;;16.57;11.00;;;7.60;90.20;;;;;;5092540;28;20623;-56
2021/01/05 11:31:56;;;;;;;13.70;10.83;;;7.60;90.10;;;;;;5092121;28;20742;-56
2021/01/05 11:34:23;;;;;;;13.90;11.50;;;7.60;90.10;;;;;;5091656;28;20636;-55
2021/01/05 11:36:50;;;;;;;13.20;10.03;;;7.70;90.10;;;;;;5091929;28;21220;-56
2021/01/05 11:39:19;;;;;;;14.50;11.57;;;7.60;90.00;;;;;;5092115;28;20699;-57
2021/01/05 11:41:48;;;;;;;13.63;11.53;;;7.60;90.10;;;;;;5074258;28;20638;-54
2021/01/05 11:44:15;;;;;;;11.57;10.23;;;7.60;90.10;;;;;;5092563;28;20664;-55
2021/01/05 11:46:42;;;;;;;13.90;12.00;;;7.60;90.20;;;;;;5092310;28;20658;-53
2021/01/05 11:49:09;;;;;;;13.50;11.67;;;7.60;90.20;;;;;;5092347;28;20638;-54
2021/01/05 11:51:37;;;;;;;14.80;11.10;;;7.60;90.20;;;;;;5092044;28;20635;-58
2021/01/05 11:54:04;;;;;;;13.00;11.23;;;7.70;90.20;;;;;;5089765;28;20621;-56
2021/01/05 11:56:32;;;;;;;18.20;13.03;;;7.70;90.20;;;;;;5070512;28;20658;-57
2021/01/05 11:59:00;;;;;;;13.80;10.90;;;7.70;90.20;;;;;;5071141;28;20973;-58
2021/01/05 12:01:27;;;;;;;12.33;11.03;;;7.70;90.20;;;;;;5054071;28;20624;-56
2021/01/05 12:03:54;;;;;;;13.67;11.07;;;7.70;90.00;;;;;;5055124;28;20647;-58
2021/01/05 12:06:22;;;;;;;12.63;10.83;;;7.70;89.90;;;;;;5072150;28;20687;-57
2021/01/05 12:08:49;;;;;;;12.20;10.40;;;7.70;90.10;;;;;;5073576;28;20619;-58
2021/01/05 12:11:17;;;;;;;13.50;10.17;;;7.70;90.00;;;;;;5071988;28;21243;-57
2021/01/05 12:13:44;;;;;;;15.30;9.87;;;7.70;90.00;;;;;;5054336;28;21013;-57
2021/01/05 12:16:12;;;;;;;14.10;11.87;;;7.70;89.70;;;;;;5054329;28;20721;-56
2021/01/05 12:18:39;;;;;;;13.87;10.70;;;7.80;90.00;;;;;;5072871;28;21161;-55
2021/01/05 12:21:06;;;;;;;15.43;11.60;;;7.80;90.10;;;;;;5052244;28;20719;-55
2021/01/05 12:23:33;;;;;;;10.57;9.47;;;7.80;90.00;;;;;;5070954;28;21214;-55
2021/01/05 12:26:00;;;;;;;14.37;10.97;;;7.80;90.00;;;;;;5071257;28;20690;-57
2021/01/05 12:28:27;;;;;;;16.60;12.60;;;7.80;89.70;;;;;;5071828;28;20631;-56
2021/01/05 12:30:54;;;;;;;12.87;10.93;;;7.90;89.70;;;;;;5071562;28;20962;-57
2021/01/05 12:33:22;;;;;;;10.43;9.27;;;7.80;90.00;;;;;;5070374;28;20689;-55
2021/01/05 12:35:49;;;;;;;11.30;9.93;;;7.90;89.40;;;;;;5071234;28;20765;-57
2021/01/05 12:38:15;;;;;;;10.60;9.53;;;7.90;89.30;;;;;;5052345;28;20637;-55
2021/01/05 12:40:42;;;;;;;14.40;11.07;;;7.90;89.30;;;;;;5069179;28;21132;-55
2021/01/05 12:43:09;;;;;;;10.47;9.37;;;7.90;88.80;;;;;;5071162;28;20714;-56
2021/01/05 12:45:36;;;;;;;10.67;9.20;;;7.90;88.50;;;;;;5071074;28;20632;-55
2021/01/05 12:48:03;;;;;;;12.30;9.17;;;7.90;88.20;;;;;;5070491;28;20660;-55
2021/01/05 12:50:31;;;;;;;11.50;9.23;;;7.90;88.10;;;;;;5069741;28;20625;-55
2021/01/05 12:52:57;;;;;;;11.20;9.07;;;7.90;88.20;;;;;;5070596;28;20647;-55